createdAt,value
2023-02-11T17:28:57.021Z,1018.06
2023-02-11T17:30:00.207Z,1018.1
2023-02-11T17:31:03.445Z,1018.1
2023-02-11T17:32:06.638Z,1018.09
2023-02-11T17:33:09.556Z,1018.08
2023-02-11T17:34:12.377Z,1018.06
2023-02-11T17:35:15.212Z,1018.06
2023-02-11T17:36:18.033Z,1018.03
2023-02-11T17:37:20.787Z,1018.04
2023-02-11T17:38:23.547Z,1018.02
2023-02-11T17:39:26.418Z,1018.03
2023-02-11T17:40:29.135Z,1018.05
2023-02-11T17:41:31.859Z,1018.06
2023-02-11T17:42:34.610Z,1018.05
2023-02-11T17:43:37.356Z,1018.06
2023-02-11T17:44:40.214Z,1018.04
2023-02-11T17:45:43.270Z,1018.08
2023-02-11T17:46:45.971Z,1018.09
2023-02-11T17:47:48.866Z,1018.05
2023-02-11T17:48:51.560Z,1018.11
2023-02-11T17:49:54.296Z,1018.07
2023-02-11T17:50:57.060Z,1018.04
2023-02-11T17:52:09.818Z,1018.01
2023-02-11T17:53:12.104Z,1018.05
2023-02-11T17:54:14.795Z,1018.09
2023-02-11T17:55:17.531Z,1018.08
2023-02-11T17:56:20.274Z,1018.09
2023-02-11T17:57:22.965Z,1018.14
2023-02-11T17:58:25.679Z,1018.1
2023-02-11T17:59:28.383Z,1018.03
2023-02-11T18:00:31.220Z,1018.1
2023-02-11T18:01:33.977Z,1018.08
2023-02-11T18:02:36.682Z,1018.07
2023-02-11T18:03:39.436Z,1018.15
2023-02-11T18:04:42.741Z,1018.14
2023-02-11T18:05:45.448Z,1018.1
2023-02-11T18:06:48.206Z,1018.13
2023-02-11T18:07:50.928Z,1018.13
2023-02-11T18:08:58.239Z,1018.18
2023-02-11T18:10:00.665Z,1018.2
2023-02-11T18:11:03.380Z,1018.18
2023-02-11T18:12:07.428Z,1018.25
2023-02-11T18:13:10.073Z,1018.22
2023-02-11T18:14:12.814Z,1018.15
2023-02-11T18:15:15.515Z,1018.18
2023-02-11T18:16:18.656Z,1018.14
2023-02-11T18:17:21.362Z,1018.16
2023-02-11T18:18:24.097Z,1018.15
2023-02-11T18:19:26.845Z,1018.1
2023-02-11T18:20:29.606Z,1018.16
2023-02-11T18:21:32.346Z,1018.13
2023-02-11T18:22:35.102Z,1018.11
2023-02-11T18:23:37.799Z,1018.13
2023-02-11T18:24:40.556Z,1018.14
2023-02-11T18:25:43.287Z,1018.17
2023-02-11T18:26:45.989Z,1018.17
2023-02-11T18:27:48.700Z,1018.19
2023-02-11T18:28:51.420Z,1018.22
2023-02-11T18:29:54.152Z,1018.2
2023-02-11T18:30:57.047Z,1018.24
2023-02-11T18:32:00.346Z,1018.21
2023-02-11T18:33:03.058Z,1018.18
2023-02-11T18:34:05.776Z,1018.15
2023-02-11T18:35:08.481Z,1018.17
2023-02-11T18:36:11.223Z,1018.18
2023-02-11T18:37:13.938Z,1018.19
2023-02-11T18:38:16.620Z,1018.18
2023-02-11T18:39:19.301Z,1018.2
2023-02-11T18:40:22.035Z,1018.2
2023-02-11T18:41:24.776Z,1018.23
2023-02-11T18:42:27.510Z,1018.2
2023-02-11T18:43:30.246Z,1018.26
2023-02-11T18:44:32.987Z,1018.23
2023-02-11T18:45:36.023Z,1018.27
2023-02-11T18:46:38.829Z,1018.23
2023-02-11T18:47:41.690Z,1018.23
2023-02-11T18:48:44.380Z,1018.23
2023-02-11T18:49:47.074Z,1018.25
2023-02-11T18:50:52.273Z,1018.23
2023-02-11T18:51:54.826Z,1018.31
2023-02-11T18:52:57.552Z,1018.26
2023-02-11T18:54:00.293Z,1018.3
2023-02-11T18:55:03.060Z,1018.39
2023-02-11T18:56:05.775Z,1018.31
2023-02-11T18:57:10.008Z,1018.38
2023-02-11T18:58:12.665Z,1018.33
2023-02-11T18:59:15.411Z,1018.34
2023-02-11T19:00:18.157Z,1018.33
2023-02-11T19:01:22.637Z,1018.33
2023-02-11T19:02:25.284Z,1018.31
2023-02-11T19:03:28.073Z,1018.39
2023-02-11T19:04:31.095Z,1018.4
2023-02-11T19:05:33.829Z,1018.42
2023-02-11T19:06:36.630Z,1018.39
2023-02-11T19:07:39.321Z,1018.41
2023-02-11T19:08:42.054Z,1018.39
2023-02-11T19:09:44.777Z,1018.36
2023-02-11T19:10:47.506Z,1018.31
2023-02-11T19:11:50.507Z,1018.35
2023-02-11T19:12:53.189Z,1018.38
2023-02-11T19:13:55.856Z,1018.31
2023-02-11T19:14:58.567Z,1018.38
2023-02-11T19:16:01.271Z,1018.38
2023-02-11T19:17:04.265Z,1018.45
2023-02-11T19:18:06.961Z,1018.42
2023-02-11T19:19:09.820Z,1018.39
2023-02-11T19:20:12.542Z,1018.49
2023-02-11T19:21:15.304Z,1018.39
2023-02-11T19:22:18.006Z,1018.44
2023-02-11T19:23:20.701Z,1018.45
2023-02-11T19:24:23.412Z,1018.44
2023-02-11T19:25:26.191Z,1018.49
2023-02-11T19:26:28.944Z,1018.52
2023-02-11T19:27:31.652Z,1018.49
2023-02-11T19:28:34.640Z,1018.5
2023-02-11T19:29:37.379Z,1018.5
2023-02-11T19:30:40.548Z,1018.5
2023-02-11T19:31:43.905Z,1018.52
2023-02-11T19:32:46.661Z,1018.42
2023-02-11T19:33:49.355Z,1018.41
2023-02-11T19:34:52.173Z,1018.4
2023-02-11T19:35:54.878Z,1018.39
2023-02-11T19:36:57.652Z,1018.41
2023-02-11T19:38:00.462Z,1018.39
2023-02-11T19:39:03.151Z,1018.41
2023-02-11T19:40:05.933Z,1018.42
2023-02-11T19:41:08.642Z,1018.4
2023-02-11T19:42:11.355Z,1018.36
2023-02-11T19:43:14.080Z,1018.4
2023-02-11T19:44:16.855Z,1018.37
2023-02-11T19:45:19.632Z,1018.37
2023-02-11T19:46:22.621Z,1018.4
2023-02-11T19:47:25.309Z,1018.38
2023-02-11T19:48:28.057Z,1018.37
2023-02-11T19:49:30.725Z,1018.47
2023-02-11T19:50:33.585Z,1018.4
2023-02-11T19:51:36.266Z,1018.41
2023-02-11T19:52:38.921Z,1018.42
2023-02-11T19:53:41.678Z,1018.38
2023-02-11T19:54:44.376Z,1018.4
2023-02-11T19:55:47.054Z,1018.42
2023-02-11T19:56:49.777Z,1018.45
2023-02-11T19:57:52.535Z,1018.42
2023-02-11T19:58:55.280Z,1018.35
2023-02-11T19:59:58.073Z,1018.38
2023-02-11T20:01:00.996Z,1018.36
2023-02-11T20:02:03.698Z,1018.27
2023-02-11T20:03:06.438Z,1018.27
2023-02-11T20:04:09.165Z,1018.27
2023-02-11T20:05:11.922Z,1018.21
2023-02-11T20:06:14.768Z,1018.28
2023-02-11T20:07:17.498Z,1018.29
2023-02-11T20:08:21.668Z,1018.32
2023-02-11T20:09:24.277Z,1018.29
2023-02-11T20:10:27.012Z,1018.29
2023-02-11T20:11:29.749Z,1018.32
2023-02-11T20:12:32.515Z,1018.36
2023-02-11T20:13:35.221Z,1018.38
2023-02-11T20:14:37.910Z,1018.34
2023-02-11T20:15:40.875Z,1018.37
2023-02-11T20:16:50.711Z,1018.32
2023-02-11T20:17:53.081Z,1018.3
2023-02-11T20:18:55.756Z,1018.3
2023-02-11T20:19:58.470Z,1018.33
2023-02-11T20:21:01.179Z,1018.36
2023-02-11T20:22:03.991Z,1018.31
2023-02-11T20:23:06.696Z,1018.29
2023-02-11T20:24:09.431Z,1018.31
2023-02-11T20:25:12.161Z,1018.31
2023-02-11T20:26:14.905Z,1018.31
2023-02-11T20:27:20.427Z,1018.38
2023-02-11T20:28:23.186Z,1018.33
2023-02-11T20:29:35.950Z,1018.33
2023-02-11T20:30:38.220Z,1018.26
2023-02-11T20:31:41.705Z,1018.21
2023-02-11T20:32:44.376Z,1018.22
2023-02-11T20:33:47.085Z,1018.24
2023-02-11T20:34:49.842Z,1018.2
2023-02-11T20:35:53.741Z,1018.2
2023-02-11T20:36:56.393Z,1018.19
2023-02-11T20:37:59.214Z,1018.24
2023-02-11T20:39:01.914Z,1018.21
2023-02-11T20:40:04.683Z,1018.24
2023-02-11T20:41:07.366Z,1018.16
2023-02-11T20:42:10.103Z,1018.19
2023-02-11T20:43:12.784Z,1018.22
2023-02-11T20:44:15.532Z,1018.24
2023-02-11T20:45:18.246Z,1018.29
2023-02-11T20:46:21.158Z,1018.33
2023-02-11T20:47:23.891Z,1018.39
2023-02-11T20:48:26.580Z,1018.41
2023-02-11T20:49:29.279Z,1018.4
2023-02-11T20:50:31.978Z,1018.41
2023-02-11T20:51:34.728Z,1018.4
2023-02-11T20:52:37.425Z,1018.42
2023-02-11T20:53:40.238Z,1018.38
2023-02-11T20:54:42.983Z,1018.37
2023-02-11T20:55:45.674Z,1018.39
2023-02-11T20:56:48.802Z,1018.38
2023-02-11T20:57:51.498Z,1018.4
2023-02-11T20:58:54.272Z,1018.41
2023-02-11T20:59:56.964Z,1018.41
2023-02-11T21:00:59.696Z,1018.47
2023-02-11T21:02:02.683Z,1018.46
2023-02-11T21:03:05.628Z,1018.48
2023-02-11T21:04:08.364Z,1018.5
2023-02-11T21:05:11.079Z,1018.49
2023-02-11T21:06:13.803Z,1018.49
2023-02-11T21:07:17.542Z,1018.46
2023-02-11T21:08:20.183Z,1018.47
2023-02-11T21:09:23.031Z,1018.44
2023-02-11T21:10:26.326Z,1018.49
2023-02-11T21:11:29.056Z,1018.48
2023-02-11T21:12:31.756Z,1018.45
2023-02-11T21:13:34.470Z,1018.51
2023-02-11T21:14:37.174Z,1018.54
2023-02-11T21:15:40.027Z,1018.52
2023-02-11T21:16:42.886Z,1018.47
2023-02-11T21:17:45.607Z,1018.49
2023-02-11T21:18:48.307Z,1018.43
2023-02-11T21:19:51.060Z,1018.49
2023-02-11T21:20:53.803Z,1018.53
2023-02-11T21:21:56.732Z,1018.5
2023-02-11T21:22:59.440Z,1018.48
2023-02-11T21:24:02.165Z,1018.53
2023-02-11T21:25:04.963Z,1018.54
2023-02-11T21:26:07.695Z,1018.51
2023-02-11T21:27:10.398Z,1018.51
2023-02-11T21:28:13.385Z,1018.56
2023-02-11T21:29:16.111Z,1018.59
2023-02-11T21:30:18.850Z,1018.65
2023-02-11T21:31:22.302Z,1018.64
2023-02-11T21:32:25.039Z,1018.62
2023-02-11T21:33:27.730Z,1018.65
2023-02-11T21:34:30.454Z,1018.66
2023-02-11T21:35:33.185Z,1018.65
2023-02-11T21:36:35.875Z,1018.65
2023-02-11T21:37:38.595Z,1018.62
2023-02-11T21:38:41.325Z,1018.69
2023-02-11T21:39:44.011Z,1018.65
2023-02-11T21:40:46.880Z,1018.7
2023-02-11T21:41:49.558Z,1018.71
2023-02-11T21:42:52.270Z,1018.62
2023-02-11T21:43:55.049Z,1018.66
2023-02-11T21:44:57.748Z,1018.61
2023-02-11T21:46:00.682Z,1018.59
2023-02-11T21:47:03.932Z,1018.59
2023-02-11T21:48:06.660Z,1018.59
2023-02-11T21:49:09.432Z,1018.58
2023-02-11T21:50:13.075Z,1018.63
2023-02-11T21:51:15.800Z,1018.59
2023-02-11T21:52:18.507Z,1018.6
2023-02-11T21:53:21.223Z,1018.61
2023-02-11T21:54:23.942Z,1018.59
2023-02-11T21:55:26.687Z,1018.57
2023-02-11T21:56:29.518Z,1018.6
2023-02-11T21:57:32.286Z,1018.59
2023-02-11T21:58:34.981Z,1018.6
2023-02-11T21:59:37.693Z,1018.58
2023-02-11T22:00:40.694Z,1018.52
2023-02-11T22:01:43.400Z,1018.52
2023-02-11T22:02:50.087Z,1018.57
2023-02-11T22:03:52.600Z,1018.6
2023-02-11T22:04:55.646Z,1018.63
2023-02-11T22:05:58.383Z,1018.64
2023-02-11T22:07:01.074Z,1018.68
2023-02-11T22:08:03.722Z,1018.68
2023-02-11T22:09:06.474Z,1018.67
2023-02-11T22:10:09.219Z,1018.68
2023-02-11T22:11:11.941Z,1018.62
2023-02-11T22:12:14.943Z,1018.61
2023-02-11T22:13:17.756Z,1018.56
2023-02-11T22:14:20.475Z,1018.59
2023-02-11T22:15:23.146Z,1018.61
2023-02-11T22:16:26.200Z,1018.57
2023-02-11T22:17:29.258Z,1018.57
2023-02-11T22:18:32.036Z,1018.59
2023-02-11T22:19:36.239Z,1018.59
2023-02-11T22:20:38.852Z,1018.58
2023-02-11T22:21:41.531Z,1018.63
2023-02-11T22:22:44.231Z,1018.62
2023-02-11T22:23:46.981Z,1018.59
2023-02-11T22:24:49.690Z,1018.62
2023-02-11T22:25:53.718Z,1018.59
2023-02-11T22:26:56.467Z,1018.66
2023-02-11T22:27:59.417Z,1018.67
2023-02-11T22:29:02.140Z,1018.69
2023-02-11T22:30:04.838Z,1018.7
2023-02-11T22:31:08.019Z,1018.74
2023-02-11T22:32:11.299Z,1018.75
2023-02-11T22:33:13.993Z,1018.79
2023-02-11T22:34:16.684Z,1018.78
2023-02-11T22:35:19.391Z,1018.76
2023-02-11T22:36:22.155Z,1018.76
2023-02-11T22:37:24.870Z,1018.73
2023-02-11T22:38:27.626Z,1018.73
2023-02-11T22:39:30.314Z,1018.68
2023-02-11T22:40:33.053Z,1018.65
2023-02-11T22:41:35.724Z,1018.67
2023-02-11T22:42:38.421Z,1018.65
2023-02-11T22:43:41.260Z,1018.65
2023-02-11T22:44:43.924Z,1018.6
2023-02-11T22:45:46.862Z,1018.65
2023-02-11T22:46:49.574Z,1018.63
2023-02-11T22:47:52.308Z,1018.67
2023-02-11T22:48:55.068Z,1018.62
2023-02-11T22:49:57.758Z,1018.61
2023-02-11T22:51:00.452Z,1018.62
2023-02-11T22:52:03.193Z,1018.6
2023-02-11T22:53:05.868Z,1018.61
2023-02-11T22:54:08.572Z,1018.55
2023-02-11T22:55:11.306Z,1018.67
2023-02-11T22:56:16.197Z,1018.69
2023-02-11T22:57:18.756Z,1018.68
2023-02-11T22:58:21.429Z,1018.67
2023-02-11T22:59:24.209Z,1018.69
2023-02-11T23:00:26.886Z,1018.76
2023-02-11T23:01:30.002Z,1018.81
2023-02-11T23:02:32.969Z,1018.82
2023-02-11T23:03:35.654Z,1018.86
2023-02-11T23:04:38.434Z,1018.79
2023-02-11T23:05:41.160Z,1018.82
2023-02-11T23:06:44.206Z,1018.72
2023-02-11T23:07:46.878Z,1018.68
2023-02-11T23:08:49.597Z,1018.78
2023-02-11T23:09:52.307Z,1018.77
2023-02-11T23:10:55.002Z,1018.77
2023-02-11T23:11:57.713Z,1018.85
2023-02-11T23:13:00.510Z,1018.8
2023-02-11T23:14:03.228Z,1018.84
2023-02-11T23:15:06.080Z,1018.82
2023-02-11T23:16:09.176Z,1018.78
2023-02-11T23:17:11.882Z,1018.89
2023-02-11T23:18:14.610Z,1018.9
2023-02-11T23:19:17.343Z,1018.92
2023-02-11T23:20:20.009Z,1018.91
2023-02-11T23:21:23.842Z,1018.95
2023-02-11T23:22:26.551Z,1018.91
2023-02-11T23:23:29.293Z,1018.91
2023-02-11T23:24:32.004Z,1018.98
2023-02-11T23:25:34.722Z,1018.96
2023-02-11T23:26:37.421Z,1019
2023-02-11T23:27:40.190Z,1019.03
2023-02-11T23:28:42.942Z,1018.99
2023-02-11T23:29:45.688Z,1019
2023-02-11T23:30:48.697Z,1018.99
2023-02-11T23:31:52.151Z,1018.96
2023-02-11T23:32:54.802Z,1018.95
2023-02-11T23:33:57.567Z,1018.92
2023-02-11T23:35:00.378Z,1018.92
2023-02-11T23:36:03.130Z,1018.88
2023-02-11T23:37:05.925Z,1018.9
2023-02-11T23:38:08.670Z,1018.89
2023-02-11T23:39:11.399Z,1018.89
2023-02-11T23:40:14.152Z,1018.9
2023-02-11T23:41:16.928Z,1018.91
2023-02-11T23:42:19.690Z,1018.93
2023-02-11T23:43:24.707Z,1018.91
2023-02-11T23:44:27.223Z,1018.95
2023-02-11T23:45:29.920Z,1018.95
2023-02-11T23:46:32.781Z,1018.97
2023-02-11T23:47:35.515Z,1018.86
2023-02-11T23:48:38.290Z,1018.88
2023-02-11T23:49:41.021Z,1018.84
2023-02-11T23:50:43.719Z,1018.81
2023-02-11T23:51:46.428Z,1018.84
2023-02-11T23:52:49.197Z,1018.81
2023-02-11T23:53:51.934Z,1018.77
2023-02-11T23:54:54.639Z,1018.79
2023-02-11T23:55:57.711Z,1018.82
2023-02-11T23:57:00.452Z,1018.8
2023-02-11T23:58:03.127Z,1018.73
2023-02-11T23:59:05.854Z,1018.8
